sensor_id;sensor_type;location;lat;lon;timestamp;P1;durP1;ratioP1;P2;durP2;ratioP2
50495;SDS011;38806;51.554;5.704;2023-04-19T00:00:04;21.20;;;16.10;;
50495;SDS011;38806;51.554;5.704;2023-04-19T00:02:07;22.42;;;14.45;;
50495;SDS011;38806;51.554;5.704;2023-04-19T00:04:08;22.83;;;16.15;;
50495;SDS011;38806;51.554;5.704;2023-04-19T00:06:09;18.73;;;15.15;;
50495;SDS011;38806;51.554;5.704;2023-04-19T00:08:09;21.30;;;14.07;;
50495;SDS011;38806;51.554;5.704;2023-04-19T00:10:09;22.83;;;15.70;;
50495;SDS011;38806;51.554;5.704;2023-04-19T00:12:10;21.90;;;14.70;;
50495;SDS011;38806;51.554;5.704;2023-04-19T00:14:10;19.17;;;15.43;;
50495;SDS011;38806;51.554;5.704;2023-04-19T00:16:10;20.10;;;14.48;;
50495;SDS011;38806;51.554;5.704;2023-04-19T00:18:10;21.05;;;14.35;;
50495;SDS011;38806;51.554;5.704;2023-04-19T00:20:10;20.88;;;14.82;;
50495;SDS011;38806;51.554;5.704;2023-04-19T00:22:12;21.75;;;15.02;;
50495;SDS011;38806;51.554;5.704;2023-04-19T00:24:12;19.83;;;14.80;;
50495;SDS011;38806;51.554;5.704;2023-04-19T00:26:12;20.58;;;14.68;;
50495;SDS011;38806;51.554;5.704;2023-04-19T00:28:14;20.58;;;15.43;;
50495;SDS011;38806;51.554;5.704;2023-04-19T00:30:15;21.77;;;15.23;;
50495;SDS011;38806;51.554;5.704;2023-04-19T00:32:15;23.25;;;16.35;;
50495;SDS011;38806;51.554;5.704;2023-04-19T00:34:15;22.60;;;15.55;;
50495;SDS011;38806;51.554;5.704;2023-04-19T00:36:15;20.30;;;15.30;;
50495;SDS011;38806;51.554;5.704;2023-04-19T00:38:15;23.48;;;16.25;;
50495;SDS011;38806;51.554;5.704;2023-04-19T00:40:16;22.00;;;13.45;;
50495;SDS011;38806;51.554;5.704;2023-04-19T00:42:16;19.58;;;13.85;;
50495;SDS011;38806;51.554;5.704;2023-04-19T00:44:16;20.95;;;15.20;;
50495;SDS011;38806;51.554;5.704;2023-04-19T00:46:16;27.50;;;15.95;;
50495;SDS011;38806;51.554;5.704;2023-04-19T00:48:16;23.00;;;15.27;;
50495;SDS011;38806;51.554;5.704;2023-04-19T00:50:17;25.25;;;15.68;;
50495;SDS011;38806;51.554;5.704;2023-04-19T00:52:17;22.08;;;15.82;;
50495;SDS011;38806;51.554;5.704;2023-04-19T00:54:18;23.95;;;16.27;;
50495;SDS011;38806;51.554;5.704;2023-04-19T00:56:18;26.00;;;17.08;;
50495;SDS011;38806;51.554;5.704;2023-04-19T00:58:20;26.00;;;17.20;;
50495;SDS011;38806;51.554;5.704;2023-04-19T01:00:21;21.52;;;15.85;;
50495;SDS011;38806;51.554;5.704;2023-04-19T01:02:21;22.60;;;15.93;;
50495;SDS011;38806;51.554;5.704;2023-04-19T01:04:22;24.27;;;15.65;;
50495;SDS011;38806;51.554;5.704;2023-04-19T01:06:22;22.55;;;16.05;;
50495;SDS011;38806;51.554;5.704;2023-04-19T01:08:23;25.33;;;16.73;;
50495;SDS011;38806;51.554;5.704;2023-04-19T01:10:23;25.05;;;15.63;;
50495;SDS011;38806;51.554;5.704;2023-04-19T01:12:23;22.85;;;14.93;;
50495;SDS011;38806;51.554;5.704;2023-04-19T01:14:23;26.38;;;16.83;;
50495;SDS011;38806;51.554;5.704;2023-04-19T01:16:24;23.83;;;15.57;;
50495;SDS011;38806;51.554;5.704;2023-04-19T01:18:25;23.38;;;15.50;;
50495;SDS011;38806;51.554;5.704;2023-04-19T01:20:31;25.02;;;16.33;;
50495;SDS011;38806;51.554;5.704;2023-04-19T01:22:31;26.13;;;16.73;;
50495;SDS011;38806;51.554;5.704;2023-04-19T01:24:32;21.98;;;14.75;;
50495;SDS011;38806;51.554;5.704;2023-04-19T01:26:32;19.63;;;15.77;;
50495;SDS011;38806;51.554;5.704;2023-04-19T01:28:33;23.65;;;17.50;;
50495;SDS011;38806;51.554;5.704;2023-04-19T01:30:33;21.13;;;15.32;;
50495;SDS011;38806;51.554;5.704;2023-04-19T01:32:34;25.75;;;15.82;;
50495;SDS011;38806;51.554;5.704;2023-04-19T01:34:34;21.77;;;15.98;;
50495;SDS011;38806;51.554;5.704;2023-04-19T01:36:34;21.92;;;16.33;;
50495;SDS011;38806;51.554;5.704;2023-04-19T01:38:34;23.48;;;15.88;;
50495;SDS011;38806;51.554;5.704;2023-04-19T01:40:35;24.50;;;16.30;;
50495;SDS011;38806;51.554;5.704;2023-04-19T01:42:35;25.15;;;16.27;;
50495;SDS011;38806;51.554;5.704;2023-04-19T01:44:35;23.97;;;15.90;;
50495;SDS011;38806;51.554;5.704;2023-04-19T01:46:35;21.08;;;14.68;;
50495;SDS011;38806;51.554;5.704;2023-04-19T01:48:37;23.83;;;15.65;;
50495;SDS011;38806;51.554;5.704;2023-04-19T01:50:37;26.02;;;16.30;;
50495;SDS011;38806;51.554;5.704;2023-04-19T01:52:38;23.15;;;15.88;;
50495;SDS011;38806;51.554;5.704;2023-04-19T01:54:38;22.27;;;15.90;;
50495;SDS011;38806;51.554;5.704;2023-04-19T01:56:38;26.20;;;16.55;;
50495;SDS011;38806;51.554;5.704;2023-04-19T01:58:38;25.80;;;18.42;;
50495;SDS011;38806;51.554;5.704;2023-04-19T02:00:38;24.15;;;14.50;;
50495;SDS011;38806;51.554;5.704;2023-04-19T02:02:39;23.83;;;16.17;;
50495;SDS011;38806;51.554;5.704;2023-04-19T02:04:39;21.08;;;14.55;;
50495;SDS011;38806;51.554;5.704;2023-04-19T02:06:39;21.80;;;17.17;;
50495;SDS011;38806;51.554;5.704;2023-04-19T02:08:40;24.70;;;15.63;;
50495;SDS011;38806;51.554;5.704;2023-04-19T02:10:40;20.90;;;15.20;;
50495;SDS011;38806;51.554;5.704;2023-04-19T02:12:40;24.08;;;16.60;;
50495;SDS011;38806;51.554;5.704;2023-04-19T02:14:41;22.08;;;15.68;;
50495;SDS011;38806;51.554;5.704;2023-04-19T02:16:42;23.90;;;16.30;;
50495;SDS011;38806;51.554;5.704;2023-04-19T02:18:42;21.45;;;15.10;;
50495;SDS011;38806;51.554;5.704;2023-04-19T02:20:42;23.48;;;15.80;;
50495;SDS011;38806;51.554;5.704;2023-04-19T02:22:42;23.02;;;17.52;;
50495;SDS011;38806;51.554;5.704;2023-04-19T02:24:42;25.02;;;15.63;;
50495;SDS011;38806;51.554;5.704;2023-04-19T02:26:43;22.50;;;16.70;;
50495;SDS011;38806;51.554;5.704;2023-04-19T02:28:43;22.58;;;14.02;;
50495;SDS011;38806;51.554;5.704;2023-04-19T02:30:43;23.02;;;15.43;;
50495;SDS011;38806;51.554;5.704;2023-04-19T02:32:43;24.77;;;15.80;;
50495;SDS011;38806;51.554;5.704;2023-04-19T02:34:43;22.92;;;15.70;;
50495;SDS011;38806;51.554;5.704;2023-04-19T02:36:44;23.35;;;16.13;;
50495;SDS011;38806;51.554;5.704;2023-04-19T02:38:44;22.55;;;14.45;;
50495;SDS011;38806;51.554;5.704;2023-04-19T02:40:44;20.98;;;14.80;;
50495;SDS011;38806;51.554;5.704;2023-04-19T02:42:44;21.57;;;15.40;;
50495;SDS011;38806;51.554;5.704;2023-04-19T02:44:44;22.13;;;15.47;;
50495;SDS011;38806;51.554;5.704;2023-04-19T02:46:51;20.52;;;15.02;;
50495;SDS011;38806;51.554;5.704;2023-04-19T02:48:51;19.88;;;14.20;;
50495;SDS011;38806;51.554;5.704;2023-04-19T02:50:51;20.63;;;13.63;;
50495;SDS011;38806;51.554;5.704;2023-04-19T02:52:51;22.35;;;14.45;;
50495;SDS011;38806;51.554;5.704;2023-04-19T02:54:51;19.13;;;14.30;;
50495;SDS011;38806;51.554;5.704;2023-04-19T02:56:52;20.80;;;13.57;;
50495;SDS011;38806;51.554;5.704;2023-04-19T02:58:52;20.50;;;14.67;;
50495;SDS011;38806;51.554;5.704;2023-04-19T03:00:53;23.08;;;14.43;;
50495;SDS011;38806;51.554;5.704;2023-04-19T03:02:54;21.40;;;14.35;;
50495;SDS011;38806;51.554;5.704;2023-04-19T03:04:55;24.33;;;17.45;;
50495;SDS011;38806;51.554;5.704;2023-04-19T03:06:55;19.77;;;14.00;;
50495;SDS011;38806;51.554;5.704;2023-04-19T03:08:55;20.60;;;13.82;;
50495;SDS011;38806;51.554;5.704;2023-04-19T03:10:55;22.63;;;14.80;;
50495;SDS011;38806;51.554;5.704;2023-04-19T03:12:55;20.92;;;15.32;;
50495;SDS011;38806;51.554;5.704;2023-04-19T03:14:56;22.75;;;16.50;;
50495;SDS011;38806;51.554;5.704;2023-04-19T03:16:56;20.20;;;14.33;;
50495;SDS011;38806;51.554;5.704;2023-04-19T03:18:56;21.30;;;14.77;;
50495;SDS011;38806;51.554;5.704;2023-04-19T03:20:56;21.85;;;14.90;;
50495;SDS011;38806;51.554;5.704;2023-04-19T03:22:56;20.20;;;13.68;;
50495;SDS011;38806;51.554;5.704;2023-04-19T03:24:57;19.10;;;13.10;;
50495;SDS011;38806;51.554;5.704;2023-04-19T03:26:57;18.60;;;13.85;;
50495;SDS011;38806;51.554;5.704;2023-04-19T03:28:57;19.20;;;13.95;;
50495;SDS011;38806;51.554;5.704;2023-04-19T03:30:57;26.38;;;16.67;;
50495;SDS011;38806;51.554;5.704;2023-04-19T03:32:58;21.52;;;14.25;;
50495;SDS011;38806;51.554;5.704;2023-04-19T03:34:59;19.20;;;13.63;;
50495;SDS011;38806;51.554;5.704;2023-04-19T03:36:59;21.85;;;13.70;;
50495;SDS011;38806;51.554;5.704;2023-04-19T03:38:59;23.30;;;14.40;;
50495;SDS011;38806;51.554;5.704;2023-04-19T03:41:01;21.00;;;14.13;;
50495;SDS011;38806;51.554;5.704;2023-04-19T03:43:01;21.10;;;12.85;;
50495;SDS011;38806;51.554;5.704;2023-04-19T03:45:01;20.67;;;13.25;;
50495;SDS011;38806;51.554;5.704;2023-04-19T03:47:02;21.70;;;14.15;;
50495;SDS011;38806;51.554;5.704;2023-04-19T03:49:02;17.60;;;12.82;;
50495;SDS011;38806;51.554;5.704;2023-04-19T03:51:02;21.75;;;12.80;;
50495;SDS011;38806;51.554;5.704;2023-04-19T03:53:03;17.85;;;13.43;;
50495;SDS011;38806;51.554;5.704;2023-04-19T03:55:03;18.73;;;12.60;;
50495;SDS011;38806;51.554;5.704;2023-04-19T03:57:04;16.35;;;11.85;;
50495;SDS011;38806;51.554;5.704;2023-04-19T03:59:04;19.75;;;13.73;;
50495;SDS011;38806;51.554;5.704;2023-04-19T04:01:05;22.27;;;14.60;;
50495;SDS011;38806;51.554;5.704;2023-04-19T04:03:07;18.00;;;12.18;;
50495;SDS011;38806;51.554;5.704;2023-04-19T04:05:07;16.83;;;12.60;;
50495;SDS011;38806;51.554;5.704;2023-04-19T04:07:07;16.60;;;12.00;;
50495;SDS011;38806;51.554;5.704;2023-04-19T04:09:07;18.77;;;12.32;;
50495;SDS011;38806;51.554;5.704;2023-04-19T04:11:08;19.80;;;13.15;;
50495;SDS011;38806;51.554;5.704;2023-04-19T04:13:08;19.50;;;12.80;;
50495;SDS011;38806;51.554;5.704;2023-04-19T04:15:08;16.38;;;11.88;;
50495;SDS011;38806;51.554;5.704;2023-04-19T04:17:09;20.98;;;12.77;;
50495;SDS011;38806;51.554;5.704;2023-04-19T04:19:09;17.90;;;12.85;;
50495;SDS011;38806;51.554;5.704;2023-04-19T04:21:09;20.13;;;13.15;;
50495;SDS011;38806;51.554;5.704;2023-04-19T04:23:09;16.50;;;10.93;;
50495;SDS011;38806;51.554;5.704;2023-04-19T04:25:10;17.55;;;12.05;;
50495;SDS011;38806;51.554;5.704;2023-04-19T04:27:11;16.23;;;10.57;;
50495;SDS011;38806;51.554;5.704;2023-04-19T04:29:11;16.45;;;11.23;;
50495;SDS011;38806;51.554;5.704;2023-04-19T04:31:12;18.20;;;10.85;;
50495;SDS011;38806;51.554;5.704;2023-04-19T04:33:12;18.52;;;12.27;;
50495;SDS011;38806;51.554;5.704;2023-04-19T04:35:13;19.50;;;12.68;;
50495;SDS011;38806;51.554;5.704;2023-04-19T04:37:13;20.95;;;12.10;;
50495;SDS011;38806;51.554;5.704;2023-04-19T04:39:13;16.20;;;12.00;;
50495;SDS011;38806;51.554;5.704;2023-04-19T04:41:13;16.55;;;11.88;;
50495;SDS011;38806;51.554;5.704;2023-04-19T04:43:13;16.88;;;10.82;;
50495;SDS011;38806;51.554;5.704;2023-04-19T04:45:14;14.93;;;9.95;;
50495;SDS011;38806;51.554;5.704;2023-04-19T04:47:17;16.65;;;10.25;;
50495;SDS011;38806;51.554;5.704;2023-04-19T04:49:17;20.27;;;12.18;;
50495;SDS011;38806;51.554;5.704;2023-04-19T04:51:17;18.65;;;12.00;;
50495;SDS011;38806;51.554;5.704;2023-04-19T04:53:18;15.85;;;10.90;;
50495;SDS011;38806;51.554;5.704;2023-04-19T04:55:19;19.70;;;11.60;;
50495;SDS011;38806;51.554;5.704;2023-04-19T04:57:19;16.00;;;10.98;;
50495;SDS011;38806;51.554;5.704;2023-04-19T04:59:20;15.98;;;11.80;;
50495;SDS011;38806;51.554;5.704;2023-04-19T05:01:20;21.30;;;12.68;;
50495;SDS011;38806;51.554;5.704;2023-04-19T05:03:21;16.75;;;11.55;;
50495;SDS011;38806;51.554;5.704;2023-04-19T05:05:21;16.95;;;10.50;;
50495;SDS011;38806;51.554;5.704;2023-04-19T05:07:22;19.35;;;13.05;;
50495;SDS011;38806;51.554;5.704;2023-04-19T05:09:22;19.55;;;10.65;;
50495;SDS011;38806;51.554;5.704;2023-04-19T05:11:22;21.83;;;12.23;;
50495;SDS011;38806;51.554;5.704;2023-04-19T05:13:22;18.80;;;11.40;;
50495;SDS011;38806;51.554;5.704;2023-04-19T05:15:22;19.27;;;11.50;;
50495;SDS011;38806;51.554;5.704;2023-04-19T05:17:23;18.52;;;9.98;;
50495;SDS011;38806;51.554;5.704;2023-04-19T05:19:23;17.00;;;10.65;;
50495;SDS011;38806;51.554;5.704;2023-04-19T05:21:23;16.70;;;11.05;;
50495;SDS011;38806;51.554;5.704;2023-04-19T05:23:23;17.30;;;10.95;;
50495;SDS011;38806;51.554;5.704;2023-04-19T05:25:23;17.73;;;10.43;;
50495;SDS011;38806;51.554;5.704;2023-04-19T05:27:24;17.67;;;10.20;;
50495;SDS011;38806;51.554;5.704;2023-04-19T05:29:24;18.45;;;12.20;;
50495;SDS011;38806;51.554;5.704;2023-04-19T05:31:24;16.90;;;10.45;;
50495;SDS011;38806;51.554;5.704;2023-04-19T05:33:25;13.43;;;9.25;;
50495;SDS011;38806;51.554;5.704;2023-04-19T05:35:25;14.73;;;10.30;;
50495;SDS011;38806;51.554;5.704;2023-04-19T05:37:25;15.20;;;9.68;;
50495;SDS011;38806;51.554;5.704;2023-04-19T05:39:26;21.23;;;9.57;;
50495;SDS011;38806;51.554;5.704;2023-04-19T05:41:26;19.10;;;9.27;;
50495;SDS011;38806;51.554;5.704;2023-04-19T05:43:26;15.30;;;9.63;;
50495;SDS011;38806;51.554;5.704;2023-04-19T05:45:26;14.45;;;8.40;;
50495;SDS011;38806;51.554;5.704;2023-04-19T05:47:26;15.20;;;8.20;;
50495;SDS011;38806;51.554;5.704;2023-04-19T05:49:26;14.02;;;8.40;;
50495;SDS011;38806;51.554;5.704;2023-04-19T05:51:27;13.52;;;8.95;;
50495;SDS011;38806;51.554;5.704;2023-04-19T05:53:27;12.88;;;8.93;;
50495;SDS011;38806;51.554;5.704;2023-04-19T05:55:27;15.15;;;8.50;;
50495;SDS011;38806;51.554;5.704;2023-04-19T05:57:27;12.68;;;8.13;;
50495;SDS011;38806;51.554;5.704;2023-04-19T05:59:28;12.98;;;7.35;;
50495;SDS011;38806;51.554;5.704;2023-04-19T06:01:28;10.48;;;7.32;;
50495;SDS011;38806;51.554;5.704;2023-04-19T06:03:28;12.68;;;7.82;;
50495;SDS011;38806;51.554;5.704;2023-04-19T06:05:28;10.70;;;7.25;;
50495;SDS011;38806;51.554;5.704;2023-04-19T06:07:29;11.20;;;7.05;;
50495;SDS011;38806;51.554;5.704;2023-04-19T06:09:29;14.23;;;8.13;;
50495;SDS011;38806;51.554;5.704;2023-04-19T06:11:30;13.35;;;8.05;;
50495;SDS011;38806;51.554;5.704;2023-04-19T06:13:30;12.45;;;7.55;;
50495;SDS011;38806;51.554;5.704;2023-04-19T06:15:30;11.27;;;7.78;;
50495;SDS011;38806;51.554;5.704;2023-04-19T06:17:30;13.73;;;6.85;;
50495;SDS011;38806;51.554;5.704;2023-04-19T06:19:31;12.23;;;7.93;;
50495;SDS011;38806;51.554;5.704;2023-04-19T06:21:33;11.98;;;7.60;;
50495;SDS011;38806;51.554;5.704;2023-04-19T06:23:33;19.42;;;10.35;;
50495;SDS011;38806;51.554;5.704;2023-04-19T06:25:33;9.95;;;7.50;;
50495;SDS011;38806;51.554;5.704;2023-04-19T06:27:33;11.52;;;7.22;;
50495;SDS011;38806;51.554;5.704;2023-04-19T06:29:34;10.13;;;6.93;;
50495;SDS011;38806;51.554;5.704;2023-04-19T06:31:34;13.80;;;7.70;;
50495;SDS011;38806;51.554;5.704;2023-04-19T06:33:34;18.15;;;7.57;;
50495;SDS011;38806;51.554;5.704;2023-04-19T06:35:34;11.63;;;7.10;;
50495;SDS011;38806;51.554;5.704;2023-04-19T06:37:34;12.27;;;7.63;;
50495;SDS011;38806;51.554;5.704;2023-04-19T06:39:35;13.30;;;7.45;;
50495;SDS011;38806;51.554;5.704;2023-04-19T06:41:35;11.05;;;6.88;;
50495;SDS011;38806;51.554;5.704;2023-04-19T06:43:35;17.33;;;7.07;;
50495;SDS011;38806;51.554;5.704;2023-04-19T06:45:36;10.93;;;7.55;;
50495;SDS011;38806;51.554;5.704;2023-04-19T06:47:36;12.57;;;7.50;;
50495;SDS011;38806;51.554;5.704;2023-04-19T06:49:36;12.00;;;6.97;;
50495;SDS011;38806;51.554;5.704;2023-04-19T06:51:37;13.82;;;7.03;;
50495;SDS011;38806;51.554;5.704;2023-04-19T06:53:37;10.88;;;7.63;;
50495;SDS011;38806;51.554;5.704;2023-04-19T06:55:38;10.60;;;7.35;;
50495;SDS011;38806;51.554;5.704;2023-04-19T06:57:38;13.18;;;7.65;;
50495;SDS011;38806;51.554;5.704;2023-04-19T06:59:38;15.30;;;8.83;;
50495;SDS011;38806;51.554;5.704;2023-04-19T07:01:38;11.57;;;7.50;;
50495;SDS011;38806;51.554;5.704;2023-04-19T07:03:39;12.48;;;6.65;;
50495;SDS011;38806;51.554;5.704;2023-04-19T07:05:40;13.15;;;6.72;;
50495;SDS011;38806;51.554;5.704;2023-04-19T07:07:40;11.18;;;5.88;;
50495;SDS011;38806;51.554;5.704;2023-04-19T07:09:40;11.85;;;6.75;;
50495;SDS011;38806;51.554;5.704;2023-04-19T07:11:41;10.48;;;7.65;;
50495;SDS011;38806;51.554;5.704;2023-04-19T07:13:41;11.70;;;7.00;;
50495;SDS011;38806;51.554;5.704;2023-04-19T07:15:41;11.90;;;7.30;;
50495;SDS011;38806;51.554;5.704;2023-04-19T07:17:41;9.90;;;6.65;;
50495;SDS011;38806;51.554;5.704;2023-04-19T07:19:41;11.80;;;7.78;;
50495;SDS011;38806;51.554;5.704;2023-04-19T07:21:45;14.18;;;7.63;;
50495;SDS011;38806;51.554;5.704;2023-04-19T07:23:46;11.35;;;6.78;;
50495;SDS011;38806;51.554;5.704;2023-04-19T07:25:46;9.88;;;6.70;;
50495;SDS011;38806;51.554;5.704;2023-04-19T07:27:46;9.57;;;6.63;;
50495;SDS011;38806;51.554;5.704;2023-04-19T07:29:46;11.70;;;6.67;;
50495;SDS011;38806;51.554;5.704;2023-04-19T07:31:46;9.77;;;6.67;;
50495;SDS011;38806;51.554;5.704;2023-04-19T07:33:47;12.82;;;6.97;;
50495;SDS011;38806;51.554;5.704;2023-04-19T07:35:47;13.50;;;7.40;;
50495;SDS011;38806;51.554;5.704;2023-04-19T07:37:47;11.38;;;7.05;;
50495;SDS011;38806;51.554;5.704;2023-04-19T07:39:47;24.60;;;7.68;;
50495;SDS011;38806;51.554;5.704;2023-04-19T07:41:47;12.02;;;6.90;;
50495;SDS011;38806;51.554;5.704;2023-04-19T07:43:48;9.32;;;5.95;;
50495;SDS011;38806;51.554;5.704;2023-04-19T07:45:48;10.68;;;6.40;;
50495;SDS011;38806;51.554;5.704;2023-04-19T07:47:48;12.02;;;6.32;;
50495;SDS011;38806;51.554;5.704;2023-04-19T07:49:51;12.97;;;6.77;;
50495;SDS011;38806;51.554;5.704;2023-04-19T07:51:52;10.27;;;6.63;;
50495;SDS011;38806;51.554;5.704;2023-04-19T07:53:52;9.85;;;6.55;;
50495;SDS011;38806;51.554;5.704;2023-04-19T07:55:53;11.52;;;6.65;;
50495;SDS011;38806;51.554;5.704;2023-04-19T07:57:53;8.07;;;5.47;;
50495;SDS011;38806;51.554;5.704;2023-04-19T07:59:53;8.85;;;5.82;;
50495;SDS011;38806;51.554;5.704;2023-04-19T08:01:56;8.88;;;6.25;;
50495;SDS011;38806;51.554;5.704;2023-04-19T08:03:57;8.60;;;5.93;;
50495;SDS011;38806;51.554;5.704;2023-04-19T08:05:59;10.45;;;6.13;;
50495;SDS011;38806;51.554;5.704;2023-04-19T08:07:59;10.00;;;5.68;;
50495;SDS011;38806;51.554;5.704;2023-04-19T08:09:59;10.13;;;6.47;;
50495;SDS011;38806;51.554;5.704;2023-04-19T08:12:00;9.20;;;5.63;;
50495;SDS011;38806;51.554;5.704;2023-04-19T08:14:00;9.85;;;6.10;;
50495;SDS011;38806;51.554;5.704;2023-04-19T08:16:00;9.55;;;5.53;;
50495;SDS011;38806;51.554;5.704;2023-04-19T08:18:00;9.33;;;6.97;;
50495;SDS011;38806;51.554;5.704;2023-04-19T08:20:03;13.20;;;8.02;;
50495;SDS011;38806;51.554;5.704;2023-04-19T08:22:05;12.57;;;8.25;;
50495;SDS011;38806;51.554;5.704;2023-04-19T08:24:06;11.57;;;7.95;;
50495;SDS011;38806;51.554;5.704;2023-04-19T08:26:07;12.75;;;7.25;;
50495;SDS011;38806;51.554;5.704;2023-04-19T08:28:07;10.30;;;6.80;;
50495;SDS011;38806;51.554;5.704;2023-04-19T08:30:08;12.20;;;6.15;;
50495;SDS011;38806;51.554;5.704;2023-04-19T08:32:10;13.27;;;7.35;;
50495;SDS011;38806;51.554;5.704;2023-04-19T08:34:10;9.70;;;6.18;;
50495;SDS011;38806;51.554;5.704;2023-04-19T08:36:10;8.15;;;5.72;;
50495;SDS011;38806;51.554;5.704;2023-04-19T08:38:10;9.07;;;5.95;;
50495;SDS011;38806;51.554;5.704;2023-04-19T08:40:11;8.23;;;5.32;;
50495;SDS011;38806;51.554;5.704;2023-04-19T08:42:11;7.35;;;5.18;;
50495;SDS011;38806;51.554;5.704;2023-04-19T08:44:11;9.10;;;5.23;;
50495;SDS011;38806;51.554;5.704;2023-04-19T08:46:12;9.48;;;5.35;;
50495;SDS011;38806;51.554;5.704;2023-04-19T08:48:12;7.63;;;4.53;;
50495;SDS011;38806;51.554;5.704;2023-04-19T08:50:13;9.55;;;5.05;;
50495;SDS011;38806;51.554;5.704;2023-04-19T08:52:14;8.32;;;5.43;;
50495;SDS011;38806;51.554;5.704;2023-04-19T08:54:14;7.70;;;4.88;;
50495;SDS011;38806;51.554;5.704;2023-04-19T08:56:15;7.97;;;4.72;;
50495;SDS011;38806;51.554;5.704;2023-04-19T08:58:15;7.55;;;5.00;;
50495;SDS011;38806;51.554;5.704;2023-04-19T09:00:16;9.20;;;4.67;;
50495;SDS011;38806;51.554;5.704;2023-04-19T09:02:16;7.07;;;4.22;;
50495;SDS011;38806;51.554;5.704;2023-04-19T09:04:17;5.25;;;3.95;;
50495;SDS011;38806;51.554;5.704;2023-04-19T09:06:17;7.10;;;4.30;;
50495;SDS011;38806;51.554;5.704;2023-04-19T09:08:27;10.10;;;4.20;;
50495;SDS011;38806;51.554;5.704;2023-04-19T09:10:27;11.63;;;4.07;;
50495;SDS011;38806;51.554;5.704;2023-04-19T09:12:28;6.20;;;4.13;;
50495;SDS011;38806;51.554;5.704;2023-04-19T09:14:28;6.03;;;3.90;;
50495;SDS011;38806;51.554;5.704;2023-04-19T09:16:29;8.68;;;4.95;;
50495;SDS011;38806;51.554;5.704;2023-04-19T09:18:29;6.50;;;3.80;;
50495;SDS011;38806;51.554;5.704;2023-04-19T09:20:36;8.02;;;3.95;;
50495;SDS011;38806;51.554;5.704;2023-04-19T09:22:36;7.18;;;3.72;;
50495;SDS011;38806;51.554;5.704;2023-04-19T09:24:37;8.40;;;4.83;;
50495;SDS011;38806;51.554;5.704;2023-04-19T09:26:37;5.82;;;3.63;;
50495;SDS011;38806;51.554;5.704;2023-04-19T09:28:39;9.35;;;4.35;;
50495;SDS011;38806;51.554;5.704;2023-04-19T09:30:40;6.22;;;3.63;;
50495;SDS011;38806;51.554;5.704;2023-04-19T09:32:46;5.32;;;3.55;;
50495;SDS011;38806;51.554;5.704;2023-04-19T09:34:50;10.10;;;4.18;;
50495;SDS011;38806;51.554;5.704;2023-04-19T09:36:51;6.82;;;4.07;;
50495;SDS011;38806;51.554;5.704;2023-04-19T09:38:51;6.93;;;4.03;;
50495;SDS011;38806;51.554;5.704;2023-04-19T09:40:51;7.33;;;3.63;;
50495;SDS011;38806;51.554;5.704;2023-04-19T09:42:52;6.38;;;3.97;;
50495;SDS011;38806;51.554;5.704;2023-04-19T09:44:59;6.85;;;3.58;;
50495;SDS011;38806;51.554;5.704;2023-04-19T09:46:59;5.90;;;3.42;;
50495;SDS011;38806;51.554;5.704;2023-04-19T09:51:12;7.63;;;3.38;;
50495;SDS011;38806;51.554;5.704;2023-04-19T09:53:12;5.73;;;3.13;;
50495;SDS011;38806;51.554;5.704;2023-04-19T09:55:13;5.65;;;3.30;;
50495;SDS011;38806;51.554;5.704;2023-04-19T09:57:13;5.30;;;3.42;;
50495;SDS011;38806;51.554;5.704;2023-04-19T09:59:13;6.22;;;3.35;;
50495;SDS011;38806;51.554;5.704;2023-04-19T10:01:14;8.90;;;4.20;;
50495;SDS011;38806;51.554;5.704;2023-04-19T10:03:15;6.57;;;2.72;;
50495;SDS011;38806;51.554;5.704;2023-04-19T10:05:15;4.40;;;2.80;;
50495;SDS011;38806;51.554;5.704;2023-04-19T10:07:16;10.50;;;3.53;;
50495;SDS011;38806;51.554;5.704;2023-04-19T10:09:17;3.75;;;2.53;;
50495;SDS011;38806;51.554;5.704;2023-04-19T10:11:20;9.07;;;3.15;;
50495;SDS011;38806;51.554;5.704;2023-04-19T10:13:21;6.90;;;2.80;;
50495;SDS011;38806;51.554;5.704;2023-04-19T10:15:22;7.82;;;2.60;;
50495;SDS011;38806;51.554;5.704;2023-04-19T10:17:23;5.70;;;2.35;;
50495;SDS011;38806;51.554;5.704;2023-04-19T10:19:23;5.38;;;2.28;;
50495;SDS011;38806;51.554;5.704;2023-04-19T10:21:26;4.85;;;2.25;;
50495;SDS011;38806;51.554;5.704;2023-04-19T10:23:26;4.18;;;2.25;;
50495;SDS011;38806;51.554;5.704;2023-04-19T10:25:28;4.28;;;1.25;;
50495;SDS011;38806;51.554;5.704;2023-04-19T10:27:29;3.55;;;1.70;;
50495;SDS011;38806;51.554;5.704;2023-04-19T10:31:53;4.82;;;1.40;;
50495;SDS011;38806;51.554;5.704;2023-04-19T10:33:53;6.72;;;2.85;;
50495;SDS011;38806;51.554;5.704;2023-04-19T10:35:54;2.90;;;1.67;;
50495;SDS011;38806;51.554;5.704;2023-04-19T10:38:11;3.50;;;1.58;;
50495;SDS011;38806;51.554;5.704;2023-04-19T10:40:12;3.63;;;1.75;;
50495;SDS011;38806;51.554;5.704;2023-04-19T10:47:09;5.18;;;2.50;;
50495;SDS011;38806;51.554;5.704;2023-04-19T10:49:09;4.82;;;1.75;;
50495;SDS011;38806;51.554;5.704;2023-04-19T10:51:16;4.93;;;1.27;;
50495;SDS011;38806;51.554;5.704;2023-04-19T10:53:41;5.53;;;1.75;;
50495;SDS011;38806;51.554;5.704;2023-04-19T10:55:48;6.07;;;2.53;;
50495;SDS011;38806;51.554;5.704;2023-04-19T10:58:04;4.68;;;2.05;;
50495;SDS011;38806;51.554;5.704;2023-04-19T11:00:20;5.00;;;2.10;;
50495;SDS011;38806;51.554;5.704;2023-04-19T11:04:22;4.23;;;1.80;;
50495;SDS011;38806;51.554;5.704;2023-04-19T11:06:22;3.80;;;2.05;;
50495;SDS011;38806;51.554;5.704;2023-04-19T11:08:26;4.07;;;2.00;;
50495;SDS011;38806;51.554;5.704;2023-04-19T11:10:27;4.70;;;2.13;;
50495;SDS011;38806;51.554;5.704;2023-04-19T11:12:27;5.43;;;2.20;;
50495;SDS011;38806;51.554;5.704;2023-04-19T11:14:29;5.63;;;2.30;;
50495;SDS011;38806;51.554;5.704;2023-04-19T11:16:29;5.18;;;2.20;;
50495;SDS011;38806;51.554;5.704;2023-04-19T11:18:30;4.18;;;2.47;;
50495;SDS011;38806;51.554;5.704;2023-04-19T11:20:30;3.90;;;1.87;;
50495;SDS011;38806;51.554;5.704;2023-04-19T11:22:31;3.97;;;2.28;;
50495;SDS011;38806;51.554;5.704;2023-04-19T11:24:33;4.65;;;2.30;;
50495;SDS011;38806;51.554;5.704;2023-04-19T11:26:33;6.28;;;2.85;;
50495;SDS011;38806;51.554;5.704;2023-04-19T11:28:34;3.22;;;2.03;;
50495;SDS011;38806;51.554;5.704;2023-04-19T11:30:34;7.40;;;2.70;;
50495;SDS011;38806;51.554;5.704;2023-04-19T11:32:35;4.85;;;2.30;;
50495;SDS011;38806;51.554;5.704;2023-04-19T11:34:36;3.70;;;2.08;;
50495;SDS011;38806;51.554;5.704;2023-04-19T11:36:46;7.75;;;3.25;;
50495;SDS011;38806;51.554;5.704;2023-04-19T11:38:47;2.95;;;2.05;;
50495;SDS011;38806;51.554;5.704;2023-04-19T11:40:47;6.63;;;2.38;;
50495;SDS011;38806;51.554;5.704;2023-04-19T11:43:00;6.20;;;2.35;;
50495;SDS011;38806;51.554;5.704;2023-04-19T11:45:01;3.40;;;2.00;;
50495;SDS011;38806;51.554;5.704;2023-04-19T11:47:02;4.95;;;2.25;;
50495;SDS011;38806;51.554;5.704;2023-04-19T11:49:02;4.88;;;2.20;;
50495;SDS011;38806;51.554;5.704;2023-04-19T11:51:03;5.57;;;2.77;;
50495;SDS011;38806;51.554;5.704;2023-04-19T11:55:18;4.97;;;2.58;;
50495;SDS011;38806;51.554;5.704;2023-04-19T11:57:28;2.85;;;2.05;;
50495;SDS011;38806;51.554;5.704;2023-04-19T11:59:29;4.53;;;1.75;;
50495;SDS011;38806;51.554;5.704;2023-04-19T12:01:30;5.60;;;2.40;;
50495;SDS011;38806;51.554;5.704;2023-04-19T12:03:31;4.88;;;2.25;;
50495;SDS011;38806;51.554;5.704;2023-04-19T12:05:32;3.97;;;2.25;;
50495;SDS011;38806;51.554;5.704;2023-04-19T12:07:32;5.93;;;2.47;;
50495;SDS011;38806;51.554;5.704;2023-04-19T12:09:33;4.70;;;2.23;;